Time;durP1;ratioP1;P1;durP2;ratioP2;P2;SDS_P1;SDS_P2;PMS_P1;PMS_P2;Temp;Humidity;BMP_temperature;BMP_pressure;BME280_temperature;BME280_humidity;BME280_pressure;Samples;Min_cycle;Max_cycle;Signal;HPM_P1;HPM_P2
2023/12/11 00:00:06;;;;;;;11.48;2.30;;;;;;;13.53;95.21;100181.63;5077873;28;20054;-62
2023/12/11 00:02:37;;;;;;;13.75;2.35;;;;;;;13.72;93.90;100177.47;5076752;28;20063;-62
2023/12/11 00:05:08;;;;;;;12.80;2.72;;;;;;;13.68;93.47;100182.91;5067776;28;20051;-61
2023/12/11 00:07:35;;;;;;;14.30;2.50;;;;;;;13.53;93.26;100172.50;5107960;28;20048;-61
2023/12/11 00:10:02;;;;;;;13.27;2.35;;;;;;;13.67;92.60;100169.41;5094395;28;20059;-61
2023/12/11 00:12:30;;;;;;;16.08;2.92;;;;;;;13.42;93.68;100163.06;5093797;28;20067;-61
2023/12/11 00:14:58;;;;;;;11.65;2.33;;;;;;;13.53;93.66;100153.94;5099846;28;20048;-60
2023/12/11 00:17:38;;;;;;;14.45;3.22;;;;;;;13.53;93.60;100156.72;5114442;28;20383;-63
2023/12/11 00:20:10;;;;;;;12.77;3.05;;;;;;;13.52;92.64;100165.38;5095773;28;20051;-62
2023/12/11 00:22:43;;;;;;;17.60;3.17;;;;;;;13.51;92.70;100156.25;5097413;28;20047;-62
2023/12/11 00:25:11;;;;;;;17.13;2.95;;;;;;;13.44;92.55;100150.50;5095970;28;20050;-60
2023/12/11 00:27:38;;;;;;;15.20;3.03;;;;;;;13.28;92.49;100146.81;5094867;28;20053;-62
2023/12/11 00:30:06;;;;;;;13.25;2.92;;;;;;;13.57;91.75;100145.75;5113595;28;20055;-61
2023/12/11 00:32:33;;;;;;;19.73;3.17;;;;;;;13.33;92.32;100154.88;5094822;28;20133;-60
2023/12/11 00:35:01;;;;;;;19.48;3.35;;;;;;;13.32;92.56;100150.50;5095612;28;20256;-61
2023/12/11 00:37:30;;;;;;;20.23;3.30;;;;;;;13.24;92.75;100159.72;5113956;28;20584;-62
2023/12/11 00:40:00;;;;;;;21.65;3.83;;;;;;;13.43;92.28;100150.84;5096843;28;20036;-59
2023/12/11 00:42:27;;;;;;;20.23;2.83;;;;;;;13.16;92.84;100154.28;5094448;28;20062;-61
2023/12/11 00:44:55;;;;;;;24.33;4.25;;;;;;;13.11;92.99;100158.06;5113840;28;20048;-62
2023/12/11 00:47:22;;;;;;;19.13;3.25;;;;;;;13.22;92.91;100155.66;5112694;28;20054;-61
2023/12/11 00:49:49;;;;;;;18.95;3.33;;;;;;;13.22;91.57;100156.47;5078176;28;20150;-61
2023/12/11 00:52:17;;;;;;;18.17;3.47;;;;;;;13.12;93.42;100154.19;5095134;28;20050;-61
2023/12/11 00:54:44;;;;;;;20.20;3.05;;;;;;;13.38;92.01;100151.88;5113696;28;20581;-61
2023/12/11 00:57:12;;;;;;;17.33;3.53;;;;;;;13.20;92.06;100141.38;5113941;28;20055;-61
2023/12/11 00:59:39;;;;;;;19.55;3.22;;;;;;;13.14;92.45;100140.00;5112830;28;20055;-61
2023/12/11 01:02:06;;;;;;;20.77;3.20;;;;;;;12.95;92.71;100137.75;5094991;28;20509;-61
2023/12/11 01:04:33;;;;;;;17.98;3.17;;;;;;;13.07;92.53;100161.88;5102131;28;20066;-61
2023/12/11 01:07:01;;;;;;;22.60;3.70;;;;;;;12.94;93.11;100146.38;5087761;28;20511;-60
2023/12/11 01:09:28;;;;;;;16.02;3.03;;;;;;;12.93;93.15;100150.31;5095233;28;20412;-60
2023/12/11 01:11:55;;;;;;;13.32;3.13;;;;;;;13.20;92.81;100174.56;5091694;28;20071;-60
2023/12/11 01:14:23;;;;;;;22.63;3.60;;;;;;;13.10;92.17;100169.47;5093078;28;20472;-60
2023/12/11 01:16:50;;;;;;;15.07;3.05;;;;;;;13.20;91.18;100182.84;5075169;28;20059;-60
2023/12/11 01:19:17;;;;;;;22.35;3.50;;;;;;;12.98;92.55;100173.00;5093066;28;20547;-61
2023/12/11 01:21:45;;;;;;;27.15;4.00;;;;;;;13.35;91.11;100173.91;5075290;28;20056;-61
2023/12/11 01:24:18;;;;;;;20.50;3.47;;;;;;;13.26;90.81;100184.25;5054940;28;20071;-61
2023/12/11 01:26:47;;;;;;;16.65;2.90;;;;;;;13.08;91.96;100177.31;5055337;28;20428;-62
2023/12/11 01:29:14;;;;;;;22.95;4.00;;;;;;;13.09;91.99;100209.34;5071086;28;20063;-59
2023/12/11 01:31:42;;;;;;;21.75;4.28;;;;;;;12.89;92.66;100208.22;5072536;28;20400;-62
2023/12/11 01:34:10;;;;;;;19.23;3.60;;;;;;;12.71;93.90;100200.47;5073888;28;20036;-61
2023/12/11 01:36:43;;;;;;;28.45;4.18;;;;;;;12.82;93.90;100177.56;5073419;28;20059;-61
2023/12/11 01:39:11;;;;;;;23.50;3.72;;;;;;;13.06;93.01;100161.06;5094730;28;20051;-62
2023/12/11 01:41:43;;;;;;;24.05;3.72;;;;;;;12.94;92.53;100158.25;5092204;28;20051;-61
2023/12/11 01:44:10;;;;;;;21.08;3.75;;;;;;;13.03;92.88;100177.53;5075286;28;20036;-61
2023/12/11 01:46:41;;;;;;;23.38;3.90;;;;;;;13.44;91.44;100180.13;5092531;28;20407;-63
2023/12/11 01:49:09;;;;;;;23.60;3.90;;;;;;;13.38;90.32;100189.81;5091863;28;20062;-62
2023/12/11 01:51:37;;;;;;;21.17;3.47;;;;;;;13.19;90.94;100193.13;5093243;28;20055;-60
2023/12/11 01:54:05;;;;;;;20.45;3.00;;;;;;;13.32;90.75;100194.75;5093276;28;20055;-61
2023/12/11 01:56:33;;;;;;;21.77;3.72;;;;;;;13.28;90.38;100195.78;5093410;28;20040;-60
2023/12/11 01:59:02;;;;;;;22.30;3.63;;;;;;;13.25;90.76;100208.34;5075282;28;20047;-60
2023/12/11 02:01:29;;;;;;;24.98;3.65;;;;;;;13.24;91.01;100192.91;5093020;28;20051;-61
2023/12/11 02:03:57;;;;;;;22.33;3.78;;;;;;;13.10;91.53;100178.59;5085727;28;20059;-60
2023/12/11 02:06:24;;;;;;;18.50;3.53;;;;;;;13.16;91.35;100168.91;5071352;28;20048;-61
2023/12/11 02:08:52;;;;;;;22.65;4.25;;;;;;;13.42;90.89;100172.16;5089846;28;20625;-62
2023/12/11 02:11:20;;;;;;;23.85;3.67;;;;;;;13.25;90.03;100163.28;5096685;28;20052;-61
2023/12/11 02:13:47;;;;;;;27.83;4.85;;;;;;;13.11;90.88;100162.81;5113288;28;20046;-62
2023/12/11 02:16:24;;;;;;;27.08;4.05;;;;;;;13.05;91.43;100151.16;5095490;28;20054;-64
2023/12/11 02:18:52;;;;;;;27.50;5.05;;;;;;;13.18;91.22;100155.53;5112922;28;20048;-60
2023/12/11 02:21:23;;;;;;;26.88;3.85;;;;;;;13.11;90.99;100151.75;5099310;28;20063;-63
2023/12/11 02:24:05;;;;;;;23.83;3.70;;;;;;;13.07;92.10;100145.28;5057167;28;20048;-61
2023/12/11 02:26:32;;;;;;;24.17;4.25;;;;;;;13.02;92.13;100148.28;5094207;28;20044;-64
2023/12/11 02:29:00;;;;;;;18.27;3.45;;;;;;;13.09;91.90;100138.25;5111256;28;20044;-60
2023/12/11 02:31:27;;;;;;;26.95;4.18;;;;;;;13.13;91.14;100119.00;5112304;28;20058;-60
2023/12/11 02:33:54;;;;;;;20.38;3.97;;;;;;;13.21;91.17;100115.34;5111305;28;20051;-61
2023/12/11 02:36:21;;;;;;;22.90;3.90;;;;;;;13.33;90.07;100126.41;5112361;28;20474;-61
2023/12/11 02:38:49;;;;;;;24.00;3.10;;;;;;;13.26;91.03;100134.47;5094229;28;20040;-61
2023/12/11 02:41:16;;;;;;;25.80;3.72;;;;;;;13.27;90.68;100133.31;5078978;28;20062;-60
2023/12/11 02:43:44;;;;;;;20.65;4.00;;;;;;;13.37;89.69;100105.22;5115959;28;20048;-60
2023/12/11 02:46:11;;;;;;;20.17;3.80;;;;;;;13.46;90.76;100119.69;5116318;28;20047;-58
2023/12/11 02:48:38;;;;;;;23.05;4.55;;;;;;;13.18;90.93;100125.13;5097647;28;20502;-61
2023/12/11 02:51:06;;;;;;;24.33;4.03;;;;;;;13.34;90.47;100142.66;5116159;28;20039;-60
2023/12/11 02:53:33;;;;;;;27.35;4.93;;;;;;;13.25;91.54;100136.41;5097614;28;20044;-61
2023/12/11 02:56:00;;;;;;;23.27;4.03;;;;;;;13.28;90.81;100133.00;5116071;28;20059;-60
2023/12/11 02:58:27;;;;;;;26.88;4.20;;;;;;;13.20;91.45;100128.34;5097131;28;20052;-61
2023/12/11 03:00:55;;;;;;;27.33;5.10;;;;;;;13.16;91.89;100124.66;5116076;28;20154;-60
2023/12/11 03:03:22;;;;;;;23.67;4.03;;;;;;;13.15;91.88;100122.25;5113973;28;20048;-61
2023/12/11 03:05:50;;;;;;;28.52;4.70;;;;;;;13.17;91.91;100114.41;5079002;28;20052;-59
2023/12/11 03:08:17;;;;;;;21.85;4.57;;;;;;;13.05;92.51;100125.47;5094526;28;20048;-60
2023/12/11 03:10:44;;;;;;;31.27;4.13;;;;;;;13.22;92.14;100115.00;5093036;28;20430;-61
2023/12/11 03:13:16;;;;;;;24.08;3.85;;;;;;;13.09;92.95;100118.09;5093885;28;20064;-61
2023/12/11 03:15:43;;;;;;;28.63;4.80;;;;;;;13.05;92.70;100101.41;5107445;28;20055;-60
2023/12/11 03:18:14;;;;;;;26.05;4.47;;;;;;;13.20;92.69;100091.59;5117595;27;20467;-61
2023/12/11 03:20:41;;;;;;;28.15;4.13;;;;;;;12.99;93.53;100091.69;5108020;28;20051;-60
2023/12/11 03:23:08;;;;;;;29.95;5.43;;;;;;;13.31;91.68;100092.75;5115386;28;20063;-61
2023/12/11 03:25:35;;;;;;;25.88;4.30;;;;;;;13.22;92.16;100081.00;5114967;28;20032;-60
2023/12/11 03:28:03;;;;;;;27.75;4.13;;;;;;;13.09;92.70;100076.63;5115592;28;20395;-60
2023/12/11 03:30:31;;;;;;;31.05;5.22;;;;;;;13.00;93.89;100082.25;5097442;28;20054;-61
2023/12/11 03:32:58;;;;;;;24.55;4.40;;;;;;;13.01;93.44;100088.56;5096692;28;20039;-60
2023/12/11 03:35:25;;;;;;;36.97;5.43;;;;;;;13.07;93.05;100074.22;5115282;28;20044;-61
2023/12/11 03:37:53;;;;;;;32.03;5.25;;;;;;;13.13;93.41;100100.47;5115495;28;20039;-62
2023/12/11 03:40:20;;;;;;;25.17;4.10;;;;;;;13.03;94.09;100094.59;5064693;28;20059;-61
2023/12/11 03:42:47;;;;;;;30.23;4.28;;;;;;;13.07;94.15;100101.06;5094744;28;20059;-62
2023/12/11 03:45:14;;;;;;;35.63;5.10;;;;;;;13.14;93.45;100071.69;5095183;28;20044;-62
2023/12/11 03:47:41;;;;;;;26.25;4.35;;;;;;;13.14;94.21;100068.09;5084562;28;20050;-61
2023/12/11 03:50:09;;;;;;;26.10;4.88;;;;;;;13.12;93.83;100037.22;5115384;28;20044;-61
2023/12/11 03:52:36;;;;;;;32.28;5.40;;;;;;;13.33;93.58;100035.94;5114003;28;20126;-60
2023/12/11 03:55:04;;;;;;;30.40;5.18;;;;;;;13.33;92.82;100057.25;5114742;28;20055;-61
2023/12/11 03:57:31;;;;;;;29.77;4.25;;;;;;;13.29;92.78;100070.16;5096826;28;20423;-61
2023/12/11 03:59:59;;;;;;;27.83;5.30;;;;;;;13.34;93.17;100078.22;5115131;28;20052;-61
2023/12/11 04:02:26;;;;;;;23.88;3.72;;;;;;;13.45;92.51;100094.03;5114820;28;20062;-60
2023/12/11 04:04:54;;;;;;;27.95;4.78;;;;;;;13.48;91.80;100067.59;5115034;28;20047;-58
2023/12/11 04:07:21;;;;;;;33.65;5.10;;;;;;;13.44;92.29;100075.00;5106649;28;20059;-59
2023/12/11 04:09:48;;;;;;;31.42;4.57;;;;;;;13.31;92.45;100098.28;5114161;28;20360;-60
2023/12/11 04:12:16;;;;;;;25.65;4.03;;;;;;;13.30;92.58;100074.56;5096734;28;20459;-60
2023/12/11 04:14:43;;;;;;;27.48;4.55;;;;;;;13.17;93.36;100079.28;5076584;28;20410;-60
2023/12/11 04:17:10;;;;;;;29.60;5.43;;;;;;;13.55;93.27;100074.16;5094476;28;20051;-60
2023/12/11 04:19:38;;;;;;;29.35;5.25;;;;;;;13.46;92.15;100075.44;5094456;28;20078;-62
2023/12/11 04:22:05;;;;;;;25.98;4.35;;;;;;;13.48;92.01;100079.47;5095990;28;20055;-60
2023/12/11 04:24:32;;;;;;;35.70;5.03;;;;;;;13.33;92.58;100088.50;5113282;28;20410;-61
2023/12/11 04:27:00;;;;;;;30.60;4.82;;;;;;;13.51;92.35;100080.75;5104623;28;20402;-61
2023/12/11 04:29:27;;;;;;;31.30;4.88;;;;;;;13.49;91.12;100072.78;5113368;28;20040;-64
2023/12/11 04:31:54;;;;;;;32.38;4.90;;;;;;;13.37;92.14;100102.44;5113761;28;20065;-60
2023/12/11 04:34:21;;;;;;;29.15;4.72;;;;;;;13.46;92.46;100090.09;5112219;28;20055;-60
2023/12/11 04:36:49;;;;;;;24.42;4.43;;;;;;;13.68;90.84;100063.88;5095421;28;20522;-59
2023/12/11 04:39:16;;;;;;;32.00;5.13;;;;;;;13.51;90.80;100076.00;5106447;28;20135;-60
2023/12/11 04:41:43;;;;;;;30.90;5.00;;;;;;;13.82;91.17;100074.56;5093468;28;20426;-60
2023/12/11 04:44:10;;;;;;;34.92;5.47;;;;;;;13.68;90.66;100082.44;5093223;28;20125;-61
2023/12/11 04:46:38;;;;;;;27.10;4.60;;;;;;;13.73;90.55;100093.28;5093282;28;20051;-60
2023/12/11 04:49:05;;;;;;;36.00;5.40;;;;;;;13.77;90.14;100083.94;5094160;28;20051;-59
2023/12/11 04:51:32;;;;;;;29.27;5.72;;;;;;;13.65;90.79;100066.53;5113590;28;20048;-61
2023/12/11 04:54:00;;;;;;;28.67;5.55;;;;;;;13.67;90.34;100069.78;5113259;28;20058;-60
2023/12/11 04:56:27;;;;;;;26.42;4.78;;;;;;;13.75;89.96;100064.09;5094625;28;20052;-61
2023/12/11 04:58:54;;;;;;;28.02;4.25;;;;;;;13.96;89.25;100061.97;5107399;28;20052;-60
2023/12/11 05:01:25;;;;;;;26.20;5.55;;;;;;;13.99;89.42;100077.03;5093450;28;20056;-61
2023/12/11 05:03:53;;;;;;;29.52;5.40;;;;;;;13.91;88.60;100078.00;5097241;28;20054;-61
2023/12/11 05:06:20;;;;;;;26.50;4.57;;;;;;;13.64;89.79;100093.41;5099115;28;20078;-61
2023/12/11 05:08:58;;;;;;;32.88;5.47;;;;;;;13.57;91.09;100116.13;5102704;28;20047;-62
2023/12/11 05:11:29;;;;;;;36.58;5.78;;;;;;;13.49;91.09;100108.75;5082853;28;20070;-63
2023/12/11 05:14:06;;;;;;;25.80;5.28;;;;;;;13.42;92.29;100103.00;5060234;28;20048;-62
2023/12/11 05:16:35;;;;;;;29.65;4.82;;;;;;;13.31;91.88;100092.75;5112974;28;20047;-62
2023/12/11 05:19:13;;;;;;;22.35;4.55;;;;;;;13.60;91.67;100098.00;5091692;28;20588;-62
2023/12/11 05:21:45;;;;;;;31.50;4.90;;;;;;;13.50;91.84;100095.72;5095427;28;20055;-62
2023/12/11 05:24:20;;;;;;;28.08;5.13;;;;;;;13.51;91.83;100091.84;5077078;28;20047;-62
2023/12/11 05:26:51;;;;;;;28.75;5.07;;;;;;;13.55;91.92;100074.16;5104561;28;20070;-61
2023/12/11 05:29:26;;;;;;;36.03;5.50;;;;;;;13.42;91.86;100078.09;5096236;28;20040;-62
2023/12/11 05:32:01;;;;;;;29.67;5.23;;;;;;;13.64;91.42;100089.81;5094766;28;20062;-61
2023/12/11 05:34:34;;;;;;;30.35;4.93;;;;;;;13.52;91.80;100091.47;5096148;28;20054;-61
2023/12/11 05:37:02;;;;;;;33.10;4.85;;;;;;;13.57;91.83;100093.19;5113063;28;20044;-60
2023/12/11 05:39:29;;;;;;;35.33;5.32;;;;;;;13.90;90.91;100084.69;5094761;28;20058;-59
2023/12/11 05:41:57;;;;;;;40.03;5.53;;;;;;;13.77;89.76;100083.13;5113703;28;20043;-61
2023/12/11 05:44:25;;;;;;;32.53;4.72;;;;;;;13.55;90.72;100084.41;5112530;28;20555;-61
2023/12/11 05:46:52;;;;;;;29.55;4.95;;;;;;;13.39;91.62;100087.09;5111827;28;20054;-60
2023/12/11 05:49:20;;;;;;;26.42;4.10;;;;;;;13.39;91.44;100091.81;5092721;28;20051;-61
2023/12/11 05:51:47;;;;;;;32.47;4.88;;;;;;;13.41;92.04;100095.03;5092647;28;20151;-60
2023/12/11 05:54:14;;;;;;;28.40;5.15;;;;;;;13.41;91.20;100101.41;5073636;28;20337;-60
2023/12/11 05:56:42;;;;;;;29.38;5.00;;;;;;;13.36;91.56;100096.09;5090685;28;20067;-61
2023/12/11 05:59:10;;;;;;;28.10;5.00;;;;;;;13.50;90.67;100106.81;5092442;28;20066;-60
2023/12/11 06:01:37;;;;;;;29.25;4.88;;;;;;;13.54;90.99;100108.53;5092253;28;20677;-59
2023/12/11 06:04:05;;;;;;;27.80;4.72;;;;;;;13.40;90.81;100102.56;5098877;28;20047;-61
2023/12/11 06:06:32;;;;;;;21.17;4.13;;;;;;;13.70;89.80;100114.16;5112087;28;20074;-60
2023/12/11 06:09:00;;;;;;;25.20;5.13;;;;;;;13.65;89.39;100119.13;5074647;28;20052;-60
2023/12/11 06:11:27;;;;;;;33.47;5.50;;;;;;;13.61;89.41;100129.28;5092066;28;20055;-60
2023/12/11 06:13:54;;;;;;;28.58;4.63;;;;;;;13.50;89.26;100120.63;5093070;28;20056;-61
2023/12/11 06:16:21;;;;;;;27.40;4.78;;;;;;;13.45;89.95;100110.63;5115237;28;20048;-61
2023/12/11 06:18:49;;;;;;;29.23;5.35;;;;;;;13.60;89.59;100124.91;5116607;28;20047;-59
2023/12/11 06:21:17;;;;;;;32.38;5.82;;;;;;;13.70;89.52;100116.94;5098282;28;20049;-59
2023/12/11 06:23:45;;;;;;;29.20;4.70;;;;;;;13.51;88.69;100130.56;5078586;28;20048;-61
2023/12/11 06:26:39;;;;;;;28.45;5.28;;;;;;;13.62;89.02;100134.44;5091570;28;20059;-61
2023/12/11 06:29:06;;;;;;;34.33;4.63;;;;;;;13.56;89.92;100133.09;5114885;28;20051;-60
2023/12/11 06:31:34;;;;;;;25.40;4.50;;;;;;;13.44;88.78;100122.03;5098002;28;20527;-60
2023/12/11 06:34:01;;;;;;;34.38;5.57;;;;;;;13.62;88.14;100125.34;5114692;28;20050;-61
2023/12/11 06:36:29;;;;;;;25.35;5.22;;;;;;;13.44;88.67;100128.34;5081239;28;20055;-60
2023/12/11 06:38:56;;;;;;;33.50;6.00;;;;;;;13.34;89.66;100139.88;5093633;28;20048;-60
2023/12/11 06:41:24;;;;;;;24.33;4.80;;;;;;;13.39;89.72;100139.66;5060949;28;20368;-61
2023/12/11 06:43:57;;;;;;;24.48;4.13;;;;;;;13.43;89.79;100151.66;5060767;28;20442;-61
2023/12/11 06:46:28;;;;;;;32.72;5.30;;;;;;;13.32;89.95;100133.88;5077427;28;20055;-60
2023/12/11 06:48:57;;;;;;;26.60;4.72;;;;;;;13.58;89.61;100125.25;5078043;28;20051;-62
2023/12/11 06:51:29;;;;;;;29.40;6.00;;;;;;;13.55;88.56;100123.97;5115900;28;20059;-61
2023/12/11 06:53:58;;;;;;;31.60;5.28;;;;;;;13.33;89.68;100132.75;5116221;28;20056;-60
2023/12/11 06:56:30;;;;;;;33.45;6.03;;;;;;;13.50;89.58;100121.44;5096813;28;20051;-62
2023/12/11 06:58:58;;;;;;;28.25;4.78;;;;;;;13.33;89.82;100118.13;5096439;28;20047;-60
2023/12/11 07:01:31;;;;;;;31.02;5.00;;;;;;;13.28;90.10;100124.69;5097443;28;20546;-61
2023/12/11 07:03:59;;;;;;;31.80;4.65;;;;;;;13.17;90.40;100139.31;5090264;28;20659;-60
2023/12/11 07:06:27;;;;;;;23.90;5.10;;;;;;;13.34;90.52;100141.84;5115075;28;20076;-60
2023/12/11 07:08:54;;;;;;;28.40;4.32;;;;;;;13.35;89.93;100157.31;5115450;28;20046;-60
2023/12/11 07:11:21;;;;;;;25.92;4.95;;;;;;;13.44;89.98;100153.25;5094859;28;20510;-61
2023/12/11 07:13:49;;;;;;;26.17;5.05;;;;;;;13.48;89.32;100161.66;5109016;28;20048;-61
2023/12/11 07:16:16;;;;;;;31.08;5.00;;;;;;;13.39;89.08;100161.78;5110251;28;20422;-60
2023/12/11 07:18:44;;;;;;;34.67;5.72;;;;;;;13.34;89.75;100167.56;5094632;28;20687;-61
2023/12/11 07:21:11;;;;;;;23.27;4.97;;;;;;;13.31;89.93;100175.72;5107924;28;20058;-60
2023/12/11 07:23:38;;;;;;;28.30;5.32;;;;;;;13.24;90.06;100181.84;5079478;28;20055;-61
2023/12/11 07:26:10;;;;;;;29.15;4.78;;;;;;;13.31;89.59;100178.50;5087179;28;20066;-60
2023/12/11 07:28:38;;;;;;;22.38;4.68;;;;;;;13.26;89.66;100179.53;5095910;28;20512;-60
2023/12/11 07:31:18;;;;;;;26.13;5.70;;;;;;;13.23;89.78;100187.72;5115370;28;20133;-62
2023/12/11 07:33:53;;;;;;;30.60;4.63;;;;;;;13.52;89.52;100204.91;5068405;28;20044;-61
2023/12/11 07:36:26;;;;;;;38.90;6.38;;;;;;;13.75;87.70;100207.22;5077568;28;20051;-61
2023/12/11 07:38:53;;;;;;;35.88;5.22;;;;;;;13.42;87.82;100219.19;5097244;28;20047;-62
2023/12/11 07:41:22;;;;;;;27.85;4.38;;;;;;;13.35;88.75;100218.16;5095925;28;20372;-62
2023/12/11 07:43:49;;;;;;;26.42;4.82;;;;;;;13.51;88.29;100219.09;5094019;28;20503;-60
2023/12/11 07:46:18;;;;;;;28.88;5.05;;;;;;;13.36;87.59;100209.50;5094473;28;20059;-59
2023/12/11 07:48:45;;;;;;;25.67;5.07;;;;;;;13.09;89.32;100221.19;5110355;28;20043;-60
2023/12/11 07:51:25;;;;;;;27.10;5.22;;;;;;;13.44;88.57;100218.88;5114258;28;20665;-61
2023/12/11 07:53:55;;;;;;;30.10;5.18;;;;;;;13.45;87.59;100229.59;5095079;28;20040;-62
2023/12/11 07:56:23;;;;;;;27.58;5.45;;;;;;;13.39;88.17;100233.72;5059039;28;20052;-60
2023/12/11 07:58:53;;;;;;;27.90;4.45;;;;;;;13.54;87.48;100235.81;5094513;28;20428;-60
2023/12/11 08:01:22;;;;;;;29.13;4.53;;;;;;;13.44;86.98;100244.56;5132376;27;20165;-61
2023/12/11 08:03:49;;;;;;;35.80;5.25;;;;;;;13.53;87.38;100253.56;5129560;27;20123;-61
2023/12/11 08:06:17;;;;;;;24.83;4.85;;;;;;;13.54;86.57;100255.19;5114214;28;20052;-61
2023/12/11 08:08:44;;;;;;;27.70;4.50;;;;;;;13.50;86.32;100248.72;5095841;28;20043;-60
2023/12/11 08:11:21;;;;;;;26.25;4.97;;;;;;;13.40;86.50;100251.13;5113599;28;20059;-61
2023/12/11 08:13:48;;;;;;;29.55;5.18;;;;;;;13.40;85.95;100253.91;5113164;28;20059;-61
2023/12/11 08:16:16;;;;;;;27.80;4.68;;;;;;;13.22;86.99;100253.28;5114174;28;20048;-60
2023/12/11 08:18:44;;;;;;;29.23;5.22;;;;;;;13.20;87.59;100257.53;5113551;28;20047;-60
2023/12/11 08:21:12;;;;;;;29.95;5.07;;;;;;;13.33;87.22;100259.19;5100404;28;20095;-59
2023/12/11 08:23:40;;;;;;;35.08;5.75;;;;;;;13.27;87.06;100266.88;5093398;28;20050;-61
2023/12/11 08:26:09;;;;;;;30.35;5.85;;;;;;;13.21;86.55;100273.81;5078743;28;20054;-59
2023/12/11 08:28:36;;;;;;;30.67;4.95;;;;;;;13.08;87.62;100277.66;5094352;28;20399;-61
2023/12/11 08:31:03;;;;;;;31.13;5.22;;;;;;;13.14;88.22;100276.31;5112722;28;20051;-60
2023/12/11 08:33:31;;;;;;;29.13;5.93;;;;;;;13.33;87.16;100275.78;5093803;28;20062;-59
2023/12/11 08:35:58;;;;;;;28.35;5.35;;;;;;;13.07;87.86;100278.81;5112980;28;20047;-61
2023/12/11 08:38:26;;;;;;;31.27;5.50;;;;;;;13.20;87.78;100279.66;5093592;28;20066;-61
2023/12/11 08:40:53;;;;;;;26.10;5.20;;;;;;;13.28;86.87;100282.34;5075462;28;20052;-61
2023/12/11 08:43:20;;;;;;;32.22;5.22;;;;;;;13.15;87.08;100280.69;5102298;28;20055;-61
2023/12/11 08:45:47;;;;;;;32.58;5.43;;;;;;;13.10;87.23;100288.38;5113747;28;20066;-60
2023/12/11 08:48:15;;;;;;;28.33;5.85;;;;;;;12.82;88.92;100299.19;5086331;28;20047;-60
2023/12/11 08:50:43;;;;;;;29.67;5.57;;;;;;;12.89;89.28;100293.91;5093187;28;20590;-60
2023/12/11 08:53:14;;;;;;;24.98;4.22;;;;;;;13.06;88.55;100312.31;5093196;28;20533;-60
2023/12/11 08:55:41;;;;;;;25.45;5.63;;;;;;;13.12;87.82;100300.72;5098346;28;20043;-61
2023/12/11 08:58:09;;;;;;;30.75;5.35;;;;;;;13.19;88.00;100300.16;5113573;28;20043;-61
2023/12/11 09:00:36;;;;;;;30.42;4.90;;;;;;;13.08;87.72;100307.25;5095335;28;20067;-61
2023/12/11 09:03:03;;;;;;;30.17;4.93;;;;;;;13.13;88.03;100313.41;5112871;28;20071;-61
2023/12/11 09:05:30;;;;;;;33.80;5.82;;;;;;;12.84;89.22;100319.00;5094546;28;20048;-62
2023/12/11 09:07:58;;;;;;;24.23;4.53;;;;;;;12.96;88.97;100321.81;5105356;28;20046;-60
2023/12/11 09:10:25;;;;;;;34.10;5.97;;;;;;;13.07;88.29;100314.78;5095462;28;20047;-62
2023/12/11 09:12:53;;;;;;;29.75;5.25;;;;;;;13.13;88.21;100316.16;5094107;28;20048;-61
2023/12/11 09:15:20;;;;;;;32.80;5.60;;;;;;;13.23;86.88;100315.72;5113184;28;20056;-61
2023/12/11 09:17:49;;;;;;;31.08;5.22;;;;;;;13.25;87.16;100310.66;5094694;28;20520;-59
2023/12/11 09:20:21;;;;;;;32.13;5.72;;;;;;;13.23;86.84;100332.31;5095045;28;20063;-62
2023/12/11 09:22:48;;;;;;;28.20;4.80;;;;;;;12.86;88.23;100326.94;5095566;28;20283;-62
2023/12/11 09:25:16;;;;;;;27.98;6.18;;;;;;;13.11;87.81;100331.50;5094477;28;20407;-61
2023/12/11 09:27:43;;;;;;;33.22;5.57;;;;;;;12.98;88.13;100338.06;5112521;28;20066;-60
2023/12/11 09:30:15;;;;;;;34.53;5.28;;;;;;;12.96;88.05;100340.34;5109580;28;20059;-60
2023/12/11 09:32:42;;;;;;;33.35;5.45;;;;;;;12.90;88.40;100342.50;5077214;28;20538;-60
2023/12/11 09:35:10;;;;;;;33.85;5.63;;;;;;;12.88;88.47;100347.59;5083397;28;20063;-59
2023/12/11 09:37:38;;;;;;;33.40;5.75;;;;;;;13.17;87.94;100349.47;5073855;28;20055;-61
2023/12/11 09:40:06;;;;;;;35.70;5.47;;;;;;;13.21;87.03;100351.25;5106246;28;20441;-61
2023/12/11 09:42:34;;;;;;;34.47;5.85;;;;;;;13.05;87.13;100350.25;5112436;28;20051;-61
2023/12/11 09:45:32;;;;;;;34.88;5.38;;;;;;;12.98;87.93;100352.72;5094499;28;20047;-62
2023/12/11 09:48:03;;;;;;;32.80;5.63;;;;;;;13.03;87.07;100354.47;5066985;28;20048;-61
2023/12/11 09:50:45;;;;;;;35.53;5.03;;;;;;;12.87;88.03;100368.06;5075896;28;20048;-61
2023/12/11 09:53:13;;;;;;;36.75;6.28;;;;;;;12.98;87.33;100374.00;5108723;28;20055;-60
2023/12/11 09:55:41;;;;;;;34.88;6.97;;;;;;;12.94;87.83;100382.16;5077775;28;20055;-60
2023/12/11 09:58:09;;;;;;;27.83;5.75;;;;;;;13.01;86.84;100390.72;5094887;28;20067;-61
2023/12/11 10:00:36;;;;;;;35.33;6.20;;;;;;;13.18;86.05;100387.84;5094360;28;20090;-61
2023/12/11 10:03:05;;;;;;;29.08;4.85;;;;;;;13.06;86.58;100382.25;5113243;28;20055;-61
2023/12/11 10:05:39;;;;;;;30.67;6.13;;;;;;;12.78;86.92;100385.88;5077359;28;20070;-62
2023/12/11 10:08:07;;;;;;;34.78;5.30;;;;;;;12.92;87.28;100389.97;5048173;28;20060;-63
2023/12/11 10:10:38;;;;;;;34.15;5.28;;;;;;;12.94;87.55;100387.69;5092532;28;20055;-60
2023/12/11 10:13:05;;;;;;;36.78;6.63;;;;;;;13.07;87.38;100397.72;5058258;28;20060;-61
2023/12/11 10:15:34;;;;;;;28.27;5.75;;;;;;;13.06;86.93;100385.03;5102967;28;20066;-61
2023/12/11 10:18:12;;;;;;;27.95;4.93;;;;;;;13.01;87.32;100393.50;5112858;28;20047;-61
2023/12/11 10:20:41;;;;;;;30.70;5.55;;;;;;;13.12;86.75;100377.34;5103935;28;20590;-60
2023/12/11 10:23:13;;;;;;;31.48;5.35;;;;;;;13.21;85.63;100386.38;5092421;28;20048;-60
2023/12/11 10:25:45;;;;;;;31.30;5.22;;;;;;;13.21;85.89;100387.19;5091417;28;20066;-61
2023/12/11 10:28:14;;;;;;;33.92;5.57;;;;;;;13.33;84.66;100394.72;5094115;28;20047;-60
2023/12/11 10:30:53;;;;;;;38.08;6.15;;;;;;;13.07;85.59;100389.44;5111058;28;20048;-61
2023/12/11 10:33:21;;;;;;;28.38;6.47;;;;;;;13.07;86.06;100392.19;5089282;28;20067;-60
2023/12/11 10:35:49;;;;;;;33.58;5.72;;;;;;;13.22;85.34;100383.28;5091520;28;20052;-60
2023/12/11 10:38:24;;;;;;;27.95;5.32;;;;;;;13.12;85.38;100385.63;5073455;28;20059;-61
2023/12/11 10:40:52;;;;;;;32.42;5.60;;;;;;;13.15;85.37;100391.31;5091884;28;20055;-60
2023/12/11 10:43:20;;;;;;;31.95;5.40;;;;;;;13.19;85.55;100389.50;5090131;28;20379;-61
2023/12/11 10:45:47;;;;;;;29.65;5.60;;;;;;;13.38;84.83;100400.88;5092815;28;20039;-61
2023/12/11 10:48:20;;;;;;;24.70;4.57;;;;;;;13.40;84.52;100395.81;5101949;28;20505;-62
2023/12/11 10:50:48;;;;;;;;;;;;;;;13.34;83.92;100397.16;5073978;28;20063;-60
2023/12/11 10:53:16;;;;;;;39.20;7.25;;;;;;;13.35;84.40;100393.22;5106754;28;19927;-61
2023/12/11 10:55:44;;;;;;;36.92;6.38;;;;;;;13.47;83.60;100395.25;5096956;28;20044;-60
2023/12/11 10:58:12;;;;;;;36.65;6.05;;;;;;;13.37;82.96;100399.22;5093048;28;20058;-60
2023/12/11 11:00:40;;;;;;;26.80;5.78;;;;;;;13.39;83.55;100391.41;5112259;28;20059;-61
2023/12/11 11:03:09;;;;;;;30.73;5.70;;;;;;;13.48;83.56;100385.78;5097140;28;20051;-61
2023/12/11 11:05:37;;;;;;;31.08;5.93;;;;;;;13.51;82.77;100396.19;5115686;28;20055;-60
2023/12/11 11:08:28;;;;;;;41.90;6.90;;;;;;;13.51;82.85;100393.44;5076130;28;20510;-61
2023/12/11 11:11:13;;;;;;;23.65;4.75;;;;;;;13.59;81.76;100373.16;5097373;28;20059;-62
2023/12/11 11:13:53;;;;;;;32.55;5.95;;;;;;;13.96;80.50;100383.16;5115281;28;20051;-61
2023/12/11 11:16:20;;;;;;;30.63;6.15;;;;;;;13.66;80.36;100390.00;5115120;28;20557;-60
2023/12/11 11:19:05;;;;;;;32.33;5.30;;;;;;;13.89;80.21;100384.88;5115963;28;20399;-61
2023/12/11 11:21:33;;;;;;;28.60;5.93;;;;;;;13.84;79.26;100398.94;5116458;28;20074;-61
2023/12/11 11:24:00;;;;;;;30.42;6.43;;;;;;;13.75;80.14;100403.75;5115548;28;20050;-60